Weather at Alaşehir Airport

Public forecast

Using degrees Celsius for public forecast. Weather courtesy of forecast.io.

Closest aviation weather report (METAR) to Alaşehir Airport

Closest report is Akhisar Airport, 43.0 nm (79.6 km) NW. Retrieved 2022/01/28 04:50 UTC (43 minutes ago):

LTBT 280450Z VRB02KT 3800 BR NSC M04/M04 Q1024 RMK RWY13 02002KT

Closest aviation forecast (TAF) to Alaşehir Airport

Closest forecast is Adnan Menderes International Airport, 66.1 nm (122.4 km) W. Retrieved 2022-01-28 00:03 UTC (5 hours ago):

TAF LTBJ 272240Z 2800/2824 VRB02KT CAVOK BECMG 2800/2803 FEW030 SCT080 PROB40 2803/2806 4000 BR BECMG 2806/2809 CAVOK BECMG 2809/2812 SCT030